Time;durP1;ratioP1;P1;durP2;ratioP2;P2;SDS_P1;SDS_P2;PMS_P1;PMS_P2;Temp;Humidity;BMP_temperature;BMP_pressure;BME280_temperature;BME280_humidity;BME280_pressure;Samples;Min_cycle;Max_cycle;Signal;HPM_P1;HPM_P2
2021/10/09 00:01:43;;;;;;;60.80;39.05;;;10.10;99.90;;;;;;4957515;29;20506;-81
2021/10/09 00:04:09;;;;;;;52.17;35.35;;;10.10;99.90;;;;;;4957130;29;20034;-81
2021/10/09 00:06:34;;;;;;;59.78;38.33;;;10.10;99.90;;;;;;4957811;28;20096;-81
2021/10/09 00:09:01;;;;;;;60.55;38.67;;;10.10;99.90;;;;;;4957345;28;20034;-80
2021/10/09 00:11:36;;;;;;;58.15;40.08;;;10.10;99.90;;;;;;4957432;28;20118;-81
2021/10/09 00:14:03;;;;;;;63.78;38.60;;;10.10;99.90;;;;;;4956991;28;20067;-80
2021/10/09 00:16:28;;;;;;;68.43;42.65;;;10.10;99.90;;;;;;4955621;29;20038;-80
2021/10/09 00:18:54;;;;;;;61.03;39.00;;;10.00;99.90;;;;;;4957174;29;20035;-81
2021/10/09 00:21:19;;;;;;;66.90;41.97;;;10.00;99.90;;;;;;4955784;29;20471;-81
2021/10/09 00:23:45;;;;;;;63.60;40.80;;;10.00;99.90;;;;;;4957360;29;20035;-81
2021/10/09 00:26:10;;;;;;;60.95;40.92;;;10.00;99.90;;;;;;4956668;29;20451;-81
2021/10/09 00:28:36;;;;;;;59.92;38.60;;;10.00;99.90;;;;;;4956990;29;20098;-81
2021/10/09 00:31:01;;;;;;;62.10;41.15;;;10.00;99.90;;;;;;4956070;29;20049;-80
2021/10/09 00:33:27;;;;;;;58.30;37.80;;;10.00;99.90;;;;;;4956569;29;20109;-81
2021/10/09 00:35:52;;;;;;;65.22;40.70;;;9.90;99.90;;;;;;4956887;29;20027;-81
2021/10/09 00:38:18;;;;;;;67.15;42.80;;;9.90;99.90;;;;;;4956205;28;20042;-79
2021/10/09 00:40:43;;;;;;;68.40;43.88;;;9.90;99.90;;;;;;4952226;29;20055;-81
2021/10/09 00:43:09;;;;;;;70.32;43.75;;;9.90;99.90;;;;;;4947815;28;20031;-80
2021/10/09 00:45:35;;;;;;;71.18;43.45;;;9.90;99.90;;;;;;4956807;29;20027;-81
2021/10/09 00:48:00;;;;;;;70.07;43.13;;;9.90;99.90;;;;;;4956126;29;20114;-80
2021/10/09 00:50:26;;;;;;;68.60;42.00;;;9.90;99.90;;;;;;4956874;29;20364;-81
2021/10/09 00:52:54;;;;;;;64.72;40.53;;;9.80;99.90;;;;;;4956543;29;20031;-81
2021/10/09 00:55:20;;;;;;;66.30;41.65;;;9.80;99.90;;;;;;4956235;28;20042;-81
2021/10/09 00:57:47;;;;;;;72.57;43.15;;;9.80;99.90;;;;;;4956408;28;20035;-81
2021/10/09 01:00:13;;;;;;;75.15;45.15;;;9.80;99.90;;;;;;4956475;28;20365;-81
2021/10/09 01:02:39;;;;;;;66.20;41.25;;;9.80;99.90;;;;;;4956268;28;20031;-81
2021/10/09 01:05:07;;;;;;;66.63;41.88;;;9.70;99.90;;;;;;4955704;28;20019;-81
2021/10/09 01:07:32;;;;;;;65.32;41.50;;;9.80;99.90;;;;;;4955975;28;20031;-81
2021/10/09 01:09:59;;;;;;;73.13;42.97;;;9.70;99.90;;;;;;4956317;28;20034;-81
2021/10/09 01:12:26;;;;;;;75.80;45.00;;;9.70;99.90;;;;;;4956084;28;20035;-81
2021/10/09 01:14:55;;;;;;;70.90;44.03;;;9.70;99.90;;;;;;4956250;28;20035;-80
2021/10/09 01:17:20;;;;;;;78.20;46.60;;;9.60;99.90;;;;;;4955690;29;20040;-81
2021/10/09 01:19:46;;;;;;;74.35;45.75;;;9.60;99.90;;;;;;4955784;29;20023;-81
2021/10/09 01:22:12;;;;;;;73.82;44.40;;;9.60;99.90;;;;;;4955960;29;20042;-81
2021/10/09 01:24:39;;;;;;;76.13;48.15;;;9.60;99.90;;;;;;4956091;28;20062;-80
2021/10/09 01:27:05;;;;;;;80.18;45.63;;;9.60;99.90;;;;;;4955999;28;20384;-81
2021/10/09 01:29:32;;;;;;;79.00;46.70;;;9.50;99.90;;;;;;4958002;28;20450;-80
2021/10/09 01:31:58;;;;;;;78.38;45.97;;;9.50;99.90;;;;;;4955983;28;20515;-81
2021/10/09 01:34:26;;;;;;;81.15;47.70;;;9.50;99.90;;;;;;4955376;28;20031;-81
2021/10/09 01:36:51;;;;;;;84.28;49.92;;;9.50;99.90;;;;;;4955748;28;20035;-80
2021/10/09 01:39:17;;;;;;;78.15;44.83;;;9.50;99.90;;;;;;4955106;28;20496;-80
2021/10/09 01:41:46;;;;;;;84.47;47.88;;;9.50;99.90;;;;;;4955785;29;20046;-81
2021/10/09 01:44:13;;;;;;;82.55;47.90;;;9.50;99.90;;;;;;4940512;28;20035;-80
2021/10/09 01:46:39;;;;;;;78.32;45.85;;;9.50;99.90;;;;;;4951090;29;20517;-80
2021/10/09 01:49:06;;;;;;;87.03;48.90;;;9.50;99.90;;;;;;4936274;29;20079;-80
2021/10/09 01:51:31;;;;;;;88.88;50.17;;;9.50;99.90;;;;;;4936452;29;20027;-80
2021/10/09 01:53:58;;;;;;;83.40;46.70;;;9.40;99.90;;;;;;4935221;29;20392;-81
2021/10/09 01:56:24;;;;;;;83.43;46.85;;;9.40;99.90;;;;;;4952151;29;20113;-81
2021/10/09 01:58:49;;;;;;;84.93;47.17;;;9.40;99.90;;;;;;4955238;28;20023;-81
2021/10/09 02:01:16;;;;;;;86.57;49.00;;;9.40;99.90;;;;;;4954956;28;20424;-80
2021/10/09 02:03:41;;;;;;;79.95;46.03;;;9.40;99.90;;;;;;4955202;28;20031;-80
2021/10/09 02:06:07;;;;;;;81.40;44.97;;;9.40;99.90;;;;;;4955433;28;20090;-81
2021/10/09 02:08:33;;;;;;;87.68;48.42;;;9.40;99.90;;;;;;4955030;28;20079;-81
2021/10/09 02:11:01;;;;;;;87.60;47.10;;;9.40;99.90;;;;;;4955236;29;20051;-81
2021/10/09 02:18:59;;;;;;;88.00;49.22;;;9.30;99.90;;;;;;4954939;29;20368;-81
2021/10/09 02:24:26;;;;;;;94.88;51.80;;;9.20;99.90;;;;;;4954338;29;20069;-80
2021/10/09 02:26:52;;;;;;;91.75;49.58;;;9.20;99.90;;;;;;4954788;28;20412;-80
2021/10/09 02:29:18;;;;;;;94.10;49.75;;;9.20;99.90;;;;;;4953224;29;20078;-81
2021/10/09 02:31:44;;;;;;;88.13;48.92;;;9.20;99.90;;;;;;4954819;28;20039;-81
2021/10/09 02:34:10;;;;;;;98.82;49.10;;;9.20;99.90;;;;;;4954205;28;20037;-80
2021/10/09 02:36:35;;;;;;;90.32;48.50;;;9.20;99.90;;;;;;4954406;28;20090;-80
2021/10/09 02:39:01;;;;;;;99.38;52.40;;;9.20;99.90;;;;;;4953667;29;20058;-80
2021/10/09 02:41:27;;;;;;;91.15;48.20;;;9.20;99.90;;;;;;4954426;28;20097;-80
2021/10/09 02:43:53;;;;;;;102.13;51.47;;;9.20;99.90;;;;;;4953170;29;20393;-80
2021/10/09 02:46:18;;;;;;;93.47;50.83;;;9.20;99.90;;;;;;4954071;29;20019;-81
2021/10/09 02:48:44;;;;;;;106.70;53.33;;;9.20;99.90;;;;;;4954368;29;20042;-80
2021/10/09 02:51:09;;;;;;;95.40;49.53;;;9.20;99.90;;;;;;4954452;29;20502;-80
2021/10/09 02:53:35;;;;;;;94.00;52.28;;;9.20;99.90;;;;;;4954121;29;20063;-80
2021/10/09 02:56:01;;;;;;;97.50;52.05;;;9.20;99.90;;;;;;4953845;28;20158;-80
2021/10/09 02:58:26;;;;;;;97.43;51.65;;;9.20;99.90;;;;;;4954220;28;20031;-80
2021/10/09 03:00:52;;;;;;;93.03;49.22;;;9.20;99.90;;;;;;4954400;28;20432;-81
2021/10/09 03:03:17;;;;;;;91.20;48.05;;;9.20;99.90;;;;;;4953920;28;20033;-81
2021/10/09 03:05:43;;;;;;;105.90;53.33;;;9.10;99.90;;;;;;4954144;28;20027;-80
2021/10/09 03:08:12;;;;;;;87.65;47.92;;;9.10;99.90;;;;;;4954026;28;20070;-80
2021/10/09 03:10:38;;;;;;;101.05;49.70;;;9.10;99.90;;;;;;4937279;29;20480;-80
2021/10/09 03:13:03;;;;;;;98.32;50.80;;;9.10;99.90;;;;;;4953902;29;20042;-80
2021/10/09 03:15:29;;;;;;;92.13;48.92;;;9.10;99.90;;;;;;4954167;29;20024;-80
2021/10/09 03:17:54;;;;;;;94.88;49.35;;;9.10;99.90;;;;;;4953951;28;20039;-81
2021/10/09 03:20:20;;;;;;;105.38;53.92;;;9.00;99.90;;;;;;4953597;29;20433;-81
2021/10/09 03:22:47;;;;;;;98.13;54.88;;;9.00;99.90;;;;;;4953669;28;20027;-81
2021/10/09 03:25:14;;;;;;;101.95;56.85;;;9.00;99.90;;;;;;4953901;28;20391;-81
2021/10/09 03:27:39;;;;;;;116.03;57.10;;;9.00;99.90;;;;;;4953789;28;20038;-80
2021/10/09 03:30:06;;;;;;;98.88;56.55;;;9.00;99.90;;;;;;4953126;28;20027;-80
2021/10/09 03:32:32;;;;;;;106.05;56.50;;;8.90;99.90;;;;;;4954142;28;20102;-80
2021/10/09 03:34:57;;;;;;;103.63;54.60;;;8.90;99.90;;;;;;4953580;28;20036;-80
2021/10/09 03:37:23;;;;;;;108.38;54.20;;;8.80;99.90;;;;;;4953392;28;20048;-81
2021/10/09 03:39:50;;;;;;;111.75;55.60;;;8.80;99.90;;;;;;4953615;28;20046;-80
2021/10/09 03:42:32;;;;;;;112.90;56.40;;;8.80;99.90;;;;;;4953685;28;20054;-80
2021/10/09 03:45:04;;;;;;;105.47;53.63;;;8.70;99.90;;;;;;4953995;28;20083;-80
2021/10/09 03:47:49;;;;;;;108.15;53.60;;;8.70;99.90;;;;;;4953782;28;20035;-80
2021/10/09 03:50:21;;;;;;;102.38;50.88;;;8.60;99.90;;;;;;4953743;28;20051;-80
2021/10/09 03:52:47;;;;;;;109.00;53.17;;;8.60;99.90;;;;;;4953907;28;20114;-81
2021/10/09 03:55:15;;;;;;;100.85;51.05;;;8.60;99.90;;;;;;4953030;29;20181;-80
2021/10/09 03:57:42;;;;;;;104.07;50.08;;;8.60;99.90;;;;;;4953692;28;20070;-80
2021/10/09 04:00:09;;;;;;;112.20;55.20;;;8.60;99.90;;;;;;4953294;28;20027;-80
2021/10/09 04:02:35;;;;;;;113.82;53.15;;;8.60;99.90;;;;;;4952579;29;20514;-80
2021/10/09 04:05:00;;;;;;;114.63;53.70;;;8.50;99.90;;;;;;4953332;28;20035;-80
2021/10/09 04:07:27;;;;;;;122.05;55.40;;;8.50;99.90;;;;;;4953549;28;20126;-80
2021/10/09 04:09:53;;;;;;;107.03;54.47;;;8.50;99.90;;;;;;4953200;28;20054;-80
2021/10/09 04:12:18;;;;;;;114.43;55.08;;;8.50;99.90;;;;;;4952345;29;20058;-80
2021/10/09 04:14:44;;;;;;;104.03;51.08;;;8.50;99.90;;;;;;4953561;29;20043;-80
2021/10/09 04:17:09;;;;;;;109.03;52.33;;;8.40;99.90;;;;;;4953045;29;20385;-80
2021/10/09 04:19:35;;;;;;;101.40;52.90;;;8.50;99.90;;;;;;4953277;29;20383;-80
2021/10/09 04:22:00;;;;;;;103.70;51.85;;;8.50;99.90;;;;;;4953210;29;20035;-79
2021/10/09 04:24:26;;;;;;;102.78;52.33;;;8.50;99.90;;;;;;4953319;29;20075;-80
2021/10/09 04:26:51;;;;;;;107.97;54.25;;;8.50;99.90;;;;;;4952962;28;20502;-80
2021/10/09 04:29:17;;;;;;;116.10;57.20;;;8.40;99.90;;;;;;4952829;28;20090;-80
2021/10/09 04:31:43;;;;;;;104.38;53.90;;;8.40;99.90;;;;;;4953237;28;20031;-80
2021/10/09 04:34:09;;;;;;;127.97;59.65;;;8.40;99.90;;;;;;4953055;28;20028;-80
2021/10/09 04:36:34;;;;;;;131.93;62.15;;;8.40;99.90;;;;;;4953199;28;20035;-80
2021/10/09 04:39:00;;;;;;;111.82;57.45;;;8.30;99.90;;;;;;4946068;28;20528;-79
2021/10/09 04:41:25;;;;;;;125.38;58.28;;;8.30;99.90;;;;;;4946026;29;20102;-80
2021/10/09 04:43:51;;;;;;;126.43;56.60;;;8.20;99.90;;;;;;4955467;29;20357;-80
2021/10/09 04:46:16;;;;;;;114.68;51.45;;;8.30;99.90;;;;;;4956140;28;20055;-80
2021/10/09 04:48:42;;;;;;;108.43;52.40;;;8.20;99.90;;;;;;4956453;28;20031;-80
2021/10/09 04:51:07;;;;;;;131.35;53.33;;;8.20;99.90;;;;;;4956079;28;20027;-80
2021/10/09 04:53:33;;;;;;;110.90;50.70;;;8.10;99.90;;;;;;4956492;28;20035;-80
2021/10/09 04:55:59;;;;;;;123.30;53.33;;;8.10;99.90;;;;;;4956225;28;20024;-80
2021/10/09 04:58:24;;;;;;;151.70;53.72;;;8.10;99.90;;;;;;4955948;28;20039;-80
2021/10/09 05:00:51;;;;;;;172.50;56.83;;;8.10;99.90;;;;;;4955764;28;20472;-80
2021/10/09 05:03:17;;;;;;;168.25;51.80;;;8.10;99.90;;;;;;4955735;28;20034;-80
2021/10/09 05:05:43;;;;;;;135.07;52.03;;;8.10;99.90;;;;;;4956131;28;20028;-80
2021/10/09 05:08:09;;;;;;;132.10;53.28;;;8.00;99.90;;;;;;4954203;29;20027;-80
2021/10/09 05:10:35;;;;;;;131.48;53.65;;;8.00;99.90;;;;;;4956188;28;20030;-80
2021/10/09 05:13:01;;;;;;;163.95;53.42;;;8.00;99.90;;;;;;4956268;28;20058;-78
2021/10/09 05:15:26;;;;;;;125.63;51.22;;;8.00;99.90;;;;;;4955882;28;20027;-80
2021/10/09 05:17:52;;;;;;;123.43;50.53;;;7.90;99.90;;;;;;4955251;28;20583;-79
2021/10/09 05:20:18;;;;;;;147.85;56.13;;;7.90;99.90;;;;;;4954740;28;20038;-80
2021/10/09 05:22:44;;;;;;;112.78;49.35;;;7.90;99.90;;;;;;4955480;28;20031;-80
2021/10/09 05:25:10;;;;;;;159.23;57.15;;;7.90;99.90;;;;;;4955135;28;20032;-79
2021/10/09 05:27:37;;;;;;;159.52;55.38;;;7.90;99.90;;;;;;4955676;28;20391;-80
2021/10/09 05:30:09;;;;;;;127.18;52.08;;;7.80;99.90;;;;;;4954868;28;20041;-79
2021/10/09 05:32:45;;;;;;;;;;;7.80;99.90;;;;;;4956115;28;20081;-80
2021/10/09 05:35:11;;;;;;;108.10;46.47;;;7.80;99.90;;;;;;4955512;28;20010;-81
2021/10/09 05:37:36;;;;;;;116.75;47.30;;;7.70;99.90;;;;;;4954823;29;20042;-79
2021/10/09 05:40:02;;;;;;;125.22;52.22;;;7.70;99.90;;;;;;4954868;29;20043;-80
2021/10/09 05:42:27;;;;;;;127.88;52.38;;;7.70;99.90;;;;;;4955280;28;20027;-80
2021/10/09 05:44:53;;;;;;;106.57;47.47;;;7.70;99.90;;;;;;4955427;29;20028;-79
2021/10/09 05:47:18;;;;;;;110.05;49.80;;;7.70;99.90;;;;;;4954585;29;20023;-79
2021/10/09 05:49:44;;;;;;;128.10;53.38;;;7.60;99.90;;;;;;4955553;28;20024;-79
2021/10/09 05:52:18;;;;;;;125.45;50.70;;;7.60;99.90;;;;;;4956661;28;20110;-79
2021/10/09 05:54:54;;;;;;;117.47;51.95;;;7.60;99.90;;;;;;4955071;28;20063;-79
2021/10/09 05:57:33;;;;;;;125.15;49.63;;;7.60;99.90;;;;;;4954149;28;20050;-79
2021/10/09 06:00:07;;;;;;;136.95;53.63;;;7.60;99.90;;;;;;4954967;28;20077;-79
2021/10/09 06:44:01;;;;;;;189.27;56.25;;;7.90;99.90;;;;;;4953741;29;20121;-79
2021/10/09 06:46:42;;;;;;;152.52;51.65;;;8.00;99.90;;;;;;4953247;29;20451;-79
2021/10/09 07:00:21;;;;;;;160.63;56.03;;;8.30;99.90;;;;;;4938706;29;20051;-79
2021/10/09 07:02:46;;;;;;;175.10;55.97;;;8.40;99.90;;;;;;4953840;28;20030;-79
2021/10/09 07:05:16;;;;;;;190.23;64.05;;;8.40;99.90;;;;;;4952117;29;20500;-79
2021/10/09 07:07:48;;;;;;;176.88;58.50;;;8.40;99.90;;;;;;4968903;28;20054;-79
2021/10/09 07:10:13;;;;;;;161.75;60.47;;;8.50;99.90;;;;;;4953480;28;20024;-80
2021/10/09 07:12:39;;;;;;;144.57;54.80;;;8.60;99.90;;;;;;4953513;29;20054;-80
2021/10/09 07:15:06;;;;;;;162.88;62.33;;;8.60;99.90;;;;;;4968121;28;20046;-79
2021/10/09 07:17:32;;;;;;;173.15;65.60;;;8.70;99.90;;;;;;4953511;28;20046;-79
2021/10/09 07:19:57;;;;;;;163.32;64.78;;;8.80;99.90;;;;;;4953466;28;20027;-80
2021/10/09 07:22:23;;;;;;;154.82;64.05;;;8.80;99.90;;;;;;4953105;29;20042;-79
2021/10/09 07:24:49;;;;;;;125.80;54.67;;;8.90;99.90;;;;;;4953736;28;20031;-79
2021/10/09 07:27:14;;;;;;;139.15;58.47;;;9.00;99.90;;;;;;4952998;29;20027;-79
2021/10/09 07:29:40;;;;;;;153.43;62.00;;;9.00;99.90;;;;;;4953563;29;20054;-79
2021/10/09 07:32:06;;;;;;;180.00;67.13;;;9.10;99.90;;;;;;4953366;29;20027;-79
2021/10/09 07:34:31;;;;;;;170.57;69.47;;;9.20;99.90;;;;;;4953399;29;20034;-79
2021/10/09 07:36:57;;;;;;;165.02;67.57;;;9.20;99.90;;;;;;4952689;29;20046;-79
2021/10/09 07:39:25;;;;;;;164.52;68.18;;;9.30;99.90;;;;;;4952867;28;20040;-79
2021/10/09 07:41:51;;;;;;;155.05;67.85;;;9.30;99.90;;;;;;4953402;28;20035;-80
2021/10/09 07:44:22;;;;;;;144.13;67.53;;;9.30;99.90;;;;;;4952978;28;20023;-79
2021/10/09 07:46:48;;;;;;;147.07;65.80;;;9.40;99.90;;;;;;4953353;28;20034;-79
2021/10/09 07:49:13;;;;;;;128.07;58.72;;;9.40;99.90;;;;;;4952940;28;20411;-80
2021/10/09 07:51:41;;;;;;;129.90;60.95;;;9.50;99.90;;;;;;4953586;28;20048;-79
2021/10/09 07:54:06;;;;;;;152.00;67.38;;;9.50;99.90;;;;;;4952989;28;20039;-79
2021/10/09 07:56:32;;;;;;;132.98;63.63;;;9.50;99.90;;;;;;4953545;28;20031;-80
2021/10/09 07:58:57;;;;;;;121.15;59.60;;;9.60;99.90;;;;;;4953274;28;20031;-79
2021/10/09 08:01:23;;;;;;;123.50;60.13;;;9.60;99.90;;;;;;4952627;28;20020;-79
2021/10/09 08:03:49;;;;;;;123.60;62.20;;;9.70;99.90;;;;;;4953188;29;20067;-79
2021/10/09 08:06:15;;;;;;;110.05;55.58;;;9.70;99.90;;;;;;4952476;28;20031;-79
2021/10/09 08:08:40;;;;;;;116.80;59.92;;;9.70;99.90;;;;;;4953024;28;20027;-80
2021/10/09 08:11:06;;;;;;;109.53;56.03;;;9.80;99.90;;;;;;4952761;28;20027;-79
2021/10/09 08:13:32;;;;;;;112.22;55.70;;;9.80;99.90;;;;;;4948890;28;20035;-79
2021/10/09 08:15:58;;;;;;;117.82;59.45;;;9.80;99.90;;;;;;4945674;28;20055;-79
2021/10/09 08:18:24;;;;;;;118.90;62.35;;;10.00;99.90;;;;;;4950937;29;20123;-79
2021/10/09 08:20:54;;;;;;;109.95;58.67;;;10.20;99.90;;;;;;4957046;28;20063;-80
2021/10/09 08:23:24;;;;;;;108.45;57.53;;;10.30;99.90;;;;;;4956569;28;20035;-80
2021/10/09 08:26:10;;;;;;;110.82;57.58;;;10.50;99.90;;;;;;4956955;28;20036;-80
2021/10/09 08:39:16;;;;;;;89.95;51.17;;;10.90;99.90;;;;;;4956260;29;20044;-79
2021/10/09 08:41:43;;;;;;;95.90;54.63;;;10.90;99.90;;;;;;4956512;28;20510;-80
2021/10/09 08:44:09;;;;;;;90.85;52.28;;;10.90;99.90;;;;;;4956466;28;20027;-79
2021/10/09 08:46:34;;;;;;;91.95;52.10;;;10.90;99.90;;;;;;4956347;28;20053;-81
2021/10/09 08:49:00;;;;;;;93.25;53.38;;;10.90;99.90;;;;;;4956613;28;20056;-80
2021/10/09 08:51:27;;;;;;;98.60;53.78;;;10.90;99.90;;;;;;4956670;28;20447;-80
2021/10/09 08:53:54;;;;;;;89.93;53.35;;;11.00;99.90;;;;;;4956480;28;20066;-80
2021/10/09 08:56:38;;;;;;;88.13;54.10;;;11.10;99.90;;;;;;4956132;28;20039;-80
2021/10/09 08:59:25;;;;;;;84.63;50.80;;;11.20;99.90;;;;;;4955835;28;20506;-80
2021/10/09 09:02:16;;;;;;;92.28;51.72;;;11.20;99.90;;;;;;4937473;29;20043;-80
2021/10/09 09:35:01;;;;;;;77.55;49.05;;;11.30;99.90;;;;;;4956099;28;20016;-81
2021/10/09 09:40:16;;;;;;;75.20;46.00;;;11.70;99.90;;;;;;4955332;28;20051;-80
2021/10/09 09:42:47;;;;;;;78.55;48.35;;;11.90;99.90;;;;;;4955595;28;20043;-80
2021/10/09 09:45:19;;;;;;;69.65;46.15;;;11.90;99.90;;;;;;4955180;28;20033;-80
2021/10/09 09:47:45;;;;;;;;;;;12.00;99.90;;;;;;4956145;28;20388;-80
2021/10/09 09:50:12;;;;;;;67.43;42.72;;;12.00;99.90;;;;;;4955037;28;19913;-80
2021/10/09 09:52:40;;;;;;;64.57;44.53;;;12.00;99.90;;;;;;4955465;28;20106;-80
2021/10/09 09:55:08;;;;;;;61.45;42.15;;;12.00;99.90;;;;;;4955176;28;20031;-81
2021/10/09 09:57:36;;;;;;;60.05;41.67;;;12.00;99.90;;;;;;4955312;28;20031;-81
2021/10/09 10:00:07;;;;;;;63.33;41.55;;;12.10;99.90;;;;;;4954685;28;20106;-80
2021/10/09 10:02:40;;;;;;;60.40;42.53;;;12.10;99.90;;;;;;4955527;28;20038;-80
2021/10/09 10:05:06;;;;;;;58.65;39.65;;;12.10;99.90;;;;;;4954538;28;20342;-80
2021/10/09 10:07:35;;;;;;;53.92;38.03;;;12.10;99.90;;;;;;4936408;29;20460;-80
2021/10/09 10:10:01;;;;;;;58.92;39.78;;;12.20;99.90;;;;;;4949051;29;20035;-80
2021/10/09 10:12:29;;;;;;;58.75;39.38;;;12.20;99.90;;;;;;4954880;28;20026;-80
2021/10/09 10:14:55;;;;;;;55.70;37.65;;;12.20;99.90;;;;;;4955652;28;20058;-80
2021/10/09 10:17:43;;;;;;;53.33;36.47;;;12.30;99.90;;;;;;4956358;29;20034;-80
2021/10/09 10:20:11;;;;;;;58.33;41.20;;;12.30;99.90;;;;;;4954686;28;20037;-80
2021/10/09 10:22:37;;;;;;;53.08;38.75;;;12.40;99.90;;;;;;4955257;28;20074;-80
2021/10/09 10:25:24;;;;;;;50.45;37.00;;;12.50;99.90;;;;;;4954279;28;20047;-81
2021/10/09 10:28:25;;;;;;;53.90;37.28;;;12.50;99.90;;;;;;4953548;29;20055;-80
2021/10/09 10:31:04;;;;;;;51.67;36.05;;;12.60;99.90;;;;;;4933502;29;20061;-80
2021/10/09 10:33:36;;;;;;;54.10;37.78;;;12.60;99.90;;;;;;4952548;28;20054;-81
2021/10/09 10:36:01;;;;;;;46.70;35.55;;;12.60;99.90;;;;;;4954042;28;20023;-80
2021/10/09 10:38:33;;;;;;;47.20;34.78;;;12.70;99.90;;;;;;4954498;28;20046;-80
2021/10/09 10:41:03;;;;;;;51.15;37.17;;;12.80;99.90;;;;;;4954062;28;20043;-80
2021/10/09 10:51:53;;;;;;;49.47;34.83;;;13.20;99.90;;;;;;4954188;28;20034;-81
2021/10/09 10:57:04;;;;;;;46.78;32.65;;;13.40;99.90;;;;;;4954416;28;20024;-81
2021/10/09 10:59:44;;;;;;;45.75;32.25;;;13.40;99.90;;;;;;4953743;28;20023;-81
2021/10/09 11:02:18;;;;;;;44.88;32.00;;;13.50;99.90;;;;;;4953928;28;20027;-80
2021/10/09 11:04:52;;;;;;;40.47;30.20;;;13.60;99.90;;;;;;4949463;29;20028;-81
2021/10/09 11:07:20;;;;;;;45.22;31.52;;;13.70;99.90;;;;;;4933290;29;20031;-81
2021/10/09 11:09:46;;;;;;;43.47;31.42;;;13.70;99.90;;;;;;4935035;29;20062;-80
2021/10/09 11:12:18;;;;;;;41.53;31.73;;;13.70;99.90;;;;;;4934689;29;20028;-81
2021/10/09 11:14:43;;;;;;;39.58;29.63;;;13.90;99.90;;;;;;4935091;29;20509;-81
2021/10/09 11:17:09;;;;;;;47.78;30.27;;;13.90;99.90;;;;;;4935277;29;20047;-81
2021/10/09 11:19:50;;;;;;;43.15;31.75;;;14.00;99.90;;;;;;4953816;28;20039;-81
2021/10/09 11:22:19;;;;;;;43.22;30.98;;;14.20;99.90;;;;;;4953608;28;20050;-81
2021/10/09 11:24:49;;;;;;;44.47;31.10;;;14.20;99.90;;;;;;4954233;28;20043;-81
2021/10/09 11:27:16;;;;;;;43.00;31.83;;;14.30;99.90;;;;;;4953845;28;20024;-81
2021/10/09 11:30:01;;;;;;;48.65;32.70;;;14.30;99.90;;;;;;4953846;28;20038;-80
2021/10/09 11:32:33;;;;;;;39.75;29.73;;;14.30;99.90;;;;;;4953875;28;20027;-81
2021/10/09 11:34:59;;;;;;;39.10;29.25;;;14.40;99.90;;;;;;4953943;28;20031;-81
2021/10/09 11:37:26;;;;;;;43.45;31.48;;;14.40;99.90;;;;;;4953411;29;20043;-81
2021/10/09 11:39:56;;;;;;;40.30;30.52;;;14.40;99.90;;;;;;4953865;28;20126;-81
2021/10/09 11:42:29;;;;;;;39.78;28.58;;;14.40;99.90;;;;;;4953562;28;20035;-81
2021/10/09 11:53:34;;;;;;;36.00;27.08;;;14.60;99.90;;;;;;4954071;29;20407;-81
2021/10/09 11:53:57;;;;;;;39.08;26.85;;;14.90;99.90;;;;;;4958148;29;20038;-81
2021/10/09 11:56:23;;;;;;;39.58;27.95;;;14.90;99.90;;;;;;4957496;28;20031;-80
2021/10/09 11:58:54;;;;;;;40.40;30.15;;;14.90;99.90;;;;;;4957442;28;20035;-81
2021/10/09 12:01:38;;;;;;;42.00;29.05;;;14.90;99.90;;;;;;4957530;28;20031;-81
2021/10/09 12:04:23;;;;;;;37.67;29.38;;;14.90;99.90;;;;;;4957132;28;20035;-81
2021/10/09 12:06:56;;;;;;;40.30;28.02;;;14.90;99.90;;;;;;4957284;28;20501;-81
2021/10/09 12:09:58;;;;;;;39.97;27.00;;;15.00;99.90;;;;;;4938025;29;20149;-80
2021/10/09 12:12:35;;;;;;;38.70;27.48;;;15.00;99.90;;;;;;4933577;29;20075;-81
2021/10/09 12:15:02;;;;;;;36.95;26.52;;;15.10;99.70;;;;;;4937969;29;20046;-81
2021/10/09 12:17:35;;;;;;;40.88;29.08;;;15.10;99.50;;;;;;4938201;29;20384;-80
2021/10/09 12:20:05;;;;;;;37.33;27.60;;;15.20;99.20;;;;;;4937858;29;20020;-82
2021/10/09 12:22:41;;;;;;;40.90;27.58;;;15.20;99.20;;;;;;4945339;28;20015;-81
2021/10/09 12:25:22;;;;;;;38.40;27.45;;;15.30;99.20;;;;;;4957018;28;20035;-81
2021/10/09 12:27:58;;;;;;;40.78;27.77;;;15.40;98.80;;;;;;4957182;28;20050;-81
2021/10/09 12:30:47;;;;;;;34.50;25.98;;;15.40;98.90;;;;;;4956494;28;20029;-81
2021/10/09 12:33:37;;;;;;;39.17;27.27;;;15.50;98.80;;;;;;4956945;28;20102;-81
2021/10/09 12:36:33;;;;;;;41.75;29.25;;;15.60;98.20;;;;;;4956947;28;20024;-81
2021/10/09 12:39:22;;;;;;;34.72;25.80;;;15.60;98.00;;;;;;4957077;28;20512;-81
2021/10/09 12:41:54;;;;;;;36.47;24.98;;;15.70;98.40;;;;;;4956751;28;20044;-81
2021/10/09 12:44:21;;;;;;;36.83;27.38;;;15.80;98.30;;;;;;4956634;28;20633;-81
2021/10/09 12:46:46;;;;;;;39.72;26.35;;;15.80;98.00;;;;;;4956596;28;20034;-81
2021/10/09 12:49:12;;;;;;;37.20;26.50;;;15.90;97.60;;;;;;4956430;28;20027;-81
2021/10/09 12:51:38;;;;;;;35.78;26.15;;;15.90;97.70;;;;;;4956746;28;20158;-82
2021/10/09 12:54:07;;;;;;;38.15;27.27;;;15.90;97.50;;;;;;4956286;28;20027;-81
2021/10/09 12:56:34;;;;;;;35.72;24.42;;;15.90;97.10;;;;;;4956782;28;20086;-81
2021/10/09 12:59:00;;;;;;;35.42;25.83;;;15.90;97.00;;;;;;4956179;28;20115;-81
2021/10/09 13:01:25;;;;;;;38.20;25.33;;;16.00;96.90;;;;;;4951410;28;20098;-81
2021/10/09 13:03:51;;;;;;;37.63;24.33;;;16.00;96.90;;;;;;4937277;29;20182;-81
2021/10/09 13:06:17;;;;;;;36.92;23.95;;;16.00;96.70;;;;;;4936936;29;20103;-81
2021/10/09 13:08:42;;;;;;;38.47;24.40;;;16.00;96.60;;;;;;4937109;29;20024;-82
2021/10/09 13:11:08;;;;;;;40.50;27.15;;;16.00;96.00;;;;;;4937077;29;20086;-81
2021/10/09 13:13:33;;;;;;;35.10;24.02;;;16.00;96.10;;;;;;4937166;29;20045;-81
2021/10/09 13:15:59;;;;;;;36.55;26.23;;;16.00;96.20;;;;;;4937339;29;20032;-81
2021/10/09 13:18:24;;;;;;;38.15;26.05;;;16.00;95.90;;;;;;4949031;28;20035;-81
2021/10/09 13:20:50;;;;;;;32.72;23.42;;;16.10;95.90;;;;;;4956293;28;20385;-82
2021/10/09 13:23:16;;;;;;;34.75;24.40;;;16.10;96.20;;;;;;4956034;28;20094;-81
2021/10/09 13:25:41;;;;;;;32.88;23.33;;;16.20;96.00;;;;;;4956092;28;20455;-81
2021/10/09 13:28:07;;;;;;;37.45;25.27;;;16.20;96.20;;;;;;4955979;28;20027;-81
2021/10/09 13:30:34;;;;;;;32.20;23.60;;;16.30;95.60;;;;;;4956373;28;20027;-81
2021/10/09 13:32:59;;;;;;;34.55;25.10;;;16.30;95.80;;;;;;4956224;28;20027;-82
2021/10/09 13:35:25;;;;;;;33.10;23.35;;;16.30;94.90;;;;;;4956041;28;20858;-82
2021/10/09 13:37:54;;;;;;;33.08;21.55;;;16.30;94.90;;;;;;4956028;28;20178;-81
2021/10/09 13:40:20;;;;;;;34.80;22.30;;;16.40;95.10;;;;;;4955137;28;20047;-81
2021/10/09 13:42:46;;;;;;;32.33;22.98;;;16.40;95.20;;;;;;4955940;28;20081;-81
2021/10/09 13:45:11;;;;;;;33.20;21.85;;;16.50;95.10;;;;;;4955501;28;20027;-82
2021/10/09 13:47:37;;;;;;;32.38;21.85;;;16.50;94.70;;;;;;4955461;28;20023;-83
2021/10/09 13:50:03;;;;;;;29.33;21.23;;;16.60;94.60;;;;;;4955272;28;20034;-82
2021/10/09 13:52:29;;;;;;;29.15;21.05;;;16.60;94.50;;;;;;4955518;28;20396;-81
2021/10/09 13:54:54;;;;;;;31.25;20.13;;;16.60;94.60;;;;;;4955596;28;20027;-81
2021/10/09 13:57:20;;;;;;;33.42;23.50;;;16.60;94.60;;;;;;4953850;29;20050;-82
2021/10/09 13:59:45;;;;;;;31.58;21.98;;;16.60;94.50;;;;;;4955299;29;20019;-81
2021/10/09 14:02:11;;;;;;;40.65;24.35;;;16.60;94.50;;;;;;4954712;29;20035;-82
2021/10/09 14:04:38;;;;;;;31.02;21.40;;;16.60;94.10;;;;;;4955675;28;20206;-82
2021/10/09 14:07:04;;;;;;;36.13;21.88;;;16.60;94.20;;;;;;4954942;28;20030;-81
2021/10/09 14:09:30;;;;;;;33.45;21.63;;;16.60;94.20;;;;;;4955432;28;20035;-81
2021/10/09 14:11:56;;;;;;;30.27;21.15;;;16.70;93.80;;;;;;4955192;29;20039;-81
2021/10/09 14:14:25;;;;;;;30.00;20.33;;;16.60;93.60;;;;;;4954580;28;20020;-81
2021/10/09 14:16:51;;;;;;;30.48;19.25;;;16.60;93.60;;;;;;4953925;29;20055;-81
2021/10/09 14:19:17;;;;;;;28.65;19.95;;;16.60;93.70;;;;;;4954494;28;20038;-81
2021/10/09 14:21:43;;;;;;;30.67;19.20;;;16.60;93.60;;;;;;4953662;29;20396;-82
2021/10/09 14:24:09;;;;;;;29.05;20.90;;;16.60;93.70;;;;;;4953142;28;20106;-80
2021/10/09 14:26:35;;;;;;;29.92;19.50;;;16.60;93.60;;;;;;4955085;28;20031;-82
2021/10/09 14:29:00;;;;;;;27.63;19.80;;;16.70;93.70;;;;;;4955203;28;20115;-81
2021/10/09 14:31:26;;;;;;;26.27;18.83;;;16.70;93.50;;;;;;4954470;28;20034;-81
2021/10/09 14:33:51;;;;;;;27.55;19.13;;;16.70;93.40;;;;;;4955108;28;20035;-81
2021/10/09 14:36:17;;;;;;;24.92;19.30;;;16.80;93.30;;;;;;4953556;29;20027;-82
2021/10/09 14:38:42;;;;;;;27.73;19.05;;;16.70;93.20;;;;;;4955030;28;20037;-81